Time;durP1;ratioP1;P1;durP2;ratioP2;P2;SDS_P1;SDS_P2;PMS_P1;PMS_P2;Temp;Humidity;BMP_temperature;BMP_pressure;BME280_temperature;BME280_humidity;BME280_pressure;Samples;Min_cycle;Max_cycle;Signal;HPM_P1;HPM_P2
2023/09/28 00:00:39;;;;;;;6.00;5.40;;;;;;;;;;4985178;28;20181;-52
2023/09/28 00:03:07;;;;;;;8.00;5.85;;;;;;;;;;5001939;28;20536;-52
2023/09/28 00:05:34;;;;;;;6.70;5.40;;;;;;;;;;5006382;28;20250;-52
2023/09/28 00:08:00;;;;;;;8.02;5.43;;;;;;;;;;4992533;28;20181;-52
2023/09/28 00:10:26;;;;;;;6.13;5.13;;;;;;;;;;5005533;28;20207;-52
2023/09/28 00:12:53;;;;;;;6.13;5.25;;;;;;;;;;5001466;28;20465;-52
2023/09/28 00:15:19;;;;;;;6.38;5.53;;;;;;;;;;5005135;28;20241;-53
2023/09/28 00:17:47;;;;;;;5.82;5.25;;;;;;;;;;4992627;28;20228;-52
2023/09/28 00:20:17;;;;;;;6.32;5.20;;;;;;;;;;5002635;28;20467;-52
2023/09/28 00:22:44;;;;;;;6.05;5.28;;;;;;;;;;4994039;28;20210;-52
2023/09/28 00:25:11;;;;;;;6.50;5.60;;;;;;;;;;5003830;28;20242;-52
2023/09/28 00:27:41;;;;;;;5.88;5.25;;;;;;;;;;4998484;28;20177;-52
2023/09/28 00:30:12;;;;;;;6.53;4.93;;;;;;;;;;5000453;28;20181;-52
2023/09/28 00:32:38;;;;;;;7.47;5.25;;;;;;;;;;4995361;28;20181;-52
2023/09/28 00:35:04;;;;;;;6.63;5.22;;;;;;;;;;4996493;28;20196;-52
2023/09/28 00:37:30;;;;;;;11.35;5.28;;;;;;;;;;5012403;28;20252;-52
2023/09/28 00:39:56;;;;;;;6.05;5.45;;;;;;;;;;4994963;28;20216;-52
2023/09/28 00:42:24;;;;;;;6.32;5.60;;;;;;;;;;4995369;28;20532;-53
2023/09/28 00:44:51;;;;;;;8.90;5.78;;;;;;;;;;5003683;28;20181;-53
2023/09/28 00:47:18;;;;;;;6.32;5.53;;;;;;;;;;5010811;28;20182;-52
2023/09/28 00:49:44;;;;;;;8.20;5.30;;;;;;;;;;5008585;28;20487;-52
2023/09/28 00:52:11;;;;;;;5.90;5.30;;;;;;;;;;4998073;28;20246;-52
2023/09/28 00:54:38;;;;;;;5.72;5.13;;;;;;;;;;5001391;28;20180;-52
2023/09/28 00:57:05;;;;;;;6.45;5.60;;;;;;;;;;5009354;28;20262;-52
2023/09/28 00:59:31;;;;;;;5.80;5.28;;;;;;;;;;4994801;28;20196;-52
2023/09/28 01:01:57;;;;;;;8.15;5.68;;;;;;;;;;5000754;28;20560;-52
2023/09/28 01:04:23;;;;;;;5.65;5.05;;;;;;;;;;4989017;28;20273;-53
2023/09/28 01:06:49;;;;;;;5.65;5.13;;;;;;;;;;4997724;28;20268;-52
2023/09/28 01:09:15;;;;;;;6.78;4.80;;;;;;;;;;4996147;28;20177;-53
2023/09/28 01:11:42;;;;;;;5.05;4.55;;;;;;;;;;4995952;28;20617;-52
2023/09/28 01:14:08;;;;;;;7.72;5.20;;;;;;;;;;5001751;28;20284;-53
2023/09/28 01:16:36;;;;;;;5.32;4.60;;;;;;;;;;4997755;28;20205;-52
2023/09/28 01:19:02;;;;;;;7.80;5.40;;;;;;;;;;5002484;28;20181;-52
2023/09/28 01:21:30;;;;;;;5.60;4.70;;;;;;;;;;5007497;28;20169;-52
2023/09/28 01:23:57;;;;;;;5.57;4.97;;;;;;;;;;5000141;28;20197;-52
2023/09/28 01:26:23;;;;;;;6.82;4.95;;;;;;;;;;5000648;28;20181;-53
2023/09/28 01:28:50;;;;;;;6.97;4.65;;;;;;;;;;5006290;28;20480;-52
2023/09/28 01:31:16;;;;;;;7.38;4.78;;;;;;;;;;5006117;28;20199;-52
2023/09/28 01:33:42;;;;;;;6.60;5.25;;;;;;;;;;5015708;28;20506;-53
2023/09/28 01:36:08;;;;;;;5.35;4.68;;;;;;;;;;5006010;28;20205;-53
2023/09/28 01:38:46;;;;;;;6.30;4.88;;;;;;;;;;4990494;28;20178;-53
2023/09/28 01:41:12;;;;;;;6.22;4.90;;;;;;;;;;4992496;28;20230;-53
2023/09/28 01:43:38;;;;;;;8.15;5.00;;;;;;;;;;5005817;28;20186;-53
2023/09/28 01:46:03;;;;;;;6.57;4.80;;;;;;;;;;5000293;28;20288;-53
2023/09/28 01:48:29;;;;;;;6.88;4.95;;;;;;;;;;5007016;28;20193;-53
2023/09/28 01:50:55;;;;;;;5.43;4.15;;;;;;;;;;4999539;28;20177;-53
2023/09/28 01:53:21;;;;;;;5.65;5.05;;;;;;;;;;5002780;28;20189;-53
2023/09/28 01:55:48;;;;;;;6.60;4.65;;;;;;;;;;4994368;28;20552;-53
2023/09/28 01:58:14;;;;;;;5.38;4.72;;;;;;;;;;5004404;28;20455;-53
2023/09/28 02:00:44;;;;;;;5.88;4.45;;;;;;;;;;4994018;28;20591;-53
2023/09/28 02:03:10;;;;;;;6.10;4.70;;;;;;;;;;5004343;28;20191;-53
2023/09/28 02:05:37;;;;;;;5.78;4.88;;;;;;;;;;4996925;28;20470;-53
2023/09/28 02:08:05;;;;;;;5.82;4.70;;;;;;;;;;5006009;28;20191;-53
2023/09/28 02:10:31;;;;;;;8.50;5.07;;;;;;;;;;5007943;28;20590;-53
2023/09/28 02:12:57;;;;;;;4.95;4.40;;;;;;;;;;5002370;28;20192;-53
2023/09/28 02:15:23;;;;;;;5.45;4.45;;;;;;;;;;5007093;28;20187;-53
2023/09/28 02:17:50;;;;;;;5.65;4.15;;;;;;;;;;4996028;28;20212;-53
2023/09/28 02:20:18;;;;;;;7.03;4.40;;;;;;;;;;5003633;28;20185;-53
2023/09/28 02:22:44;;;;;;;4.90;4.40;;;;;;;;;;5001319;28;20266;-53
2023/09/28 02:25:31;;;;;;;6.75;5.03;;;;;;;;;;4996602;28;20184;-52
2023/09/28 02:27:57;;;;;;;6.63;5.00;;;;;;;;;;4993044;28;20279;-53
2023/09/28 02:30:23;;;;;;;5.43;4.78;;;;;;;;;;4997939;28;20568;-53
2023/09/28 02:32:49;;;;;;;5.78;5.18;;;;;;;;;;4998386;28;20184;-53
2023/09/28 02:35:16;;;;;;;7.57;5.03;;;;;;;;;;5016148;28;20623;-53
2023/09/28 02:37:44;;;;;;;5.78;5.03;;;;;;;;;;4995470;28;20208;-53
2023/09/28 02:40:10;;;;;;;5.30;4.60;;;;;;;;;;5006233;28;20630;-52
2023/09/28 02:42:36;;;;;;;6.13;4.90;;;;;;;;;;5013924;28;20184;-53
2023/09/28 02:45:09;;;;;;;4.97;4.47;;;;;;;;;;5000977;28;20706;-53
2023/09/28 02:47:35;;;;;;;5.50;4.47;;;;;;;;;;4990891;28;20212;-53
2023/09/28 02:50:00;;;;;;;5.88;5.10;;;;;;;;;;5002882;28;20188;-53
2023/09/28 02:52:26;;;;;;;7.05;4.55;;;;;;;;;;4998885;28;20200;-53
2023/09/28 02:54:52;;;;;;;7.15;4.95;;;;;;;;;;4990986;28;20197;-54
2023/09/28 02:57:18;;;;;;;5.07;4.47;;;;;;;;;;4987992;28;20228;-53
2023/09/28 02:59:44;;;;;;;5.13;4.40;;;;;;;;;;4997287;28;20236;-53
2023/09/28 03:02:13;;;;;;;5.72;4.80;;;;;;;;;;4982344;28;20221;-53
2023/09/28 03:04:39;;;;;;;5.97;4.50;;;;;;;;;;4990567;28;20178;-53
2023/09/28 03:07:05;;;;;;;7.38;4.53;;;;;;;;;;4995375;28;20200;-53
2023/09/28 03:09:33;;;;;;;5.05;4.55;;;;;;;;;;4990942;28;20177;-53
2023/09/28 03:11:59;;;;;;;4.93;4.43;;;;;;;;;;4990343;28;20188;-53
2023/09/28 03:14:28;;;;;;;5.95;4.30;;;;;;;;;;4998103;28;20197;-53
2023/09/28 03:16:54;;;;;;;6.15;4.38;;;;;;;;;;4991852;28;20476;-53
2023/09/28 03:19:20;;;;;;;4.43;4.03;;;;;;;;;;4994921;28;20182;-53
2023/09/28 03:21:46;;;;;;;5.90;4.93;;;;;;;;;;4991102;28;20177;-53
2023/09/28 03:24:12;;;;;;;5.57;4.47;;;;;;;;;;4991984;28;20608;-53
2023/09/28 03:26:38;;;;;;;5.30;4.32;;;;;;;;;;5005054;28;20459;-53
2023/09/28 03:29:04;;;;;;;6.00;4.85;;;;;;;;;;4997353;28;20770;-54
2023/09/28 03:31:32;;;;;;;4.90;4.32;;;;;;;;;;5003430;28;20196;-53
2023/09/28 03:33:58;;;;;;;6.22;4.40;;;;;;;;;;4996070;28;20173;-53
2023/09/28 03:36:24;;;;;;;6.40;4.60;;;;;;;;;;5000362;28;20526;-53
2023/09/28 03:38:50;;;;;;;16.75;6.60;;;;;;;;;;4998867;28;20716;-53
2023/09/28 03:41:17;;;;;;;20.77;7.43;;;;;;;;;;5000379;28;20224;-53
2023/09/28 03:43:44;;;;;;;27.15;6.72;;;;;;;;;;5009953;28;20180;-54
2023/09/28 03:46:09;;;;;;;20.40;7.00;;;;;;;;;;4991721;28;20299;-54
2023/09/28 03:48:35;;;;;;;16.20;5.85;;;;;;;;;;4992259;28;20268;-54
2023/09/28 03:51:02;;;;;;;11.30;5.85;;;;;;;;;;5009833;28;20188;-54
2023/09/28 03:53:27;;;;;;;15.05;5.93;;;;;;;;;;5011322;28;20180;-54
2023/09/28 03:55:54;;;;;;;11.20;5.35;;;;;;;;;;4995116;28;20519;-53
2023/09/28 03:58:21;;;;;;;15.30;5.93;;;;;;;;;;4992652;28;20281;-53
2023/09/28 04:00:48;;;;;;;18.08;6.55;;;;;;;;;;4998710;28;20175;-53
2023/09/28 04:03:14;;;;;;;12.52;5.82;;;;;;;;;;5007177;28;20201;-53
2023/09/28 04:05:40;;;;;;;12.60;5.47;;;;;;;;;;5012913;28;20215;-53
2023/09/28 04:08:07;;;;;;;11.70;5.75;;;;;;;;;;4998350;28;20513;-53
2023/09/28 04:10:33;;;;;;;11.35;5.90;;;;;;;;;;4996155;28;20261;-53
2023/09/28 04:13:01;;;;;;;14.52;5.90;;;;;;;;;;5004699;28;20180;-53
2023/09/28 04:15:27;;;;;;;12.35;5.47;;;;;;;;;;5005966;28;20211;-53
2023/09/28 04:17:53;;;;;;;13.85;5.70;;;;;;;;;;5002168;28;20530;-53
2023/09/28 04:20:19;;;;;;;16.08;6.18;;;;;;;;;;4997583;28;20438;-53
2023/09/28 04:22:45;;;;;;;13.98;6.13;;;;;;;;;;4989848;28;20188;-54
2023/09/28 04:25:11;;;;;;;10.00;5.70;;;;;;;;;;4996743;28;20189;-53
2023/09/28 04:27:37;;;;;;;12.48;6.53;;;;;;;;;;5004566;28;20506;-53
2023/09/28 04:30:03;;;;;;;8.63;5.72;;;;;;;;;;4985546;28;20872;-53
2023/09/28 04:32:30;;;;;;;7.93;5.25;;;;;;;;;;4999379;28;20172;-53
2023/09/28 04:34:57;;;;;;;12.63;6.20;;;;;;;;;;5002587;28;20212;-53
2023/09/28 04:37:25;;;;;;;12.63;5.40;;;;;;;;;;5004306;28;20255;-53
2023/09/28 04:39:53;;;;;;;8.40;5.03;;;;;;;;;;5005508;28;20199;-53
2023/09/28 04:42:20;;;;;;;11.57;5.80;;;;;;;;;;5000364;28;20193;-54
2023/09/28 04:44:46;;;;;;;10.20;5.50;;;;;;;;;;4987048;28;20245;-53
2023/09/28 04:47:12;;;;;;;9.10;4.97;;;;;;;;;;4990355;28;20181;-52
2023/09/28 04:49:40;;;;;;;9.48;5.20;;;;;;;;;;4996013;28;20446;-52
2023/09/28 04:52:06;;;;;;;10.10;5.10;;;;;;;;;;4994666;28;20604;-53
2023/09/28 04:54:33;;;;;;;7.72;5.53;;;;;;;;;;4996563;28;20186;-53
2023/09/28 04:56:59;;;;;;;10.63;4.30;;;;;;;;;;5005045;28;20570;-53
2023/09/28 04:59:25;;;;;;;11.32;5.22;;;;;;;;;;4999663;28;20239;-53
2023/09/28 05:01:51;;;;;;;6.07;4.78;;;;;;;;;;4990323;28;20186;-53
2023/09/28 05:04:18;;;;;;;6.90;5.13;;;;;;;;;;5000515;28;20181;-53
2023/09/28 05:06:44;;;;;;;11.02;4.70;;;;;;;;;;5005709;28;20441;-53
2023/09/28 05:09:11;;;;;;;10.80;4.90;;;;;;;;;;5002525;28;20188;-53
2023/09/28 05:11:37;;;;;;;8.70;5.15;;;;;;;;;;4995156;28;20624;-53
2023/09/28 05:14:03;;;;;;;7.90;5.38;;;;;;;;;;5015054;28;20261;-53
2023/09/28 05:16:29;;;;;;;8.05;4.50;;;;;;;;;;5013217;28;20295;-53
2023/09/28 05:18:55;;;;;;;7.97;4.70;;;;;;;;;;4988197;28;20200;-53
2023/09/28 05:21:21;;;;;;;6.68;5.00;;;;;;;;;;5009537;28;20178;-53
2023/09/28 05:23:48;;;;;;;8.95;5.07;;;;;;;;;;5012772;28;20204;-53
2023/09/28 05:26:14;;;;;;;7.03;5.10;;;;;;;;;;4998403;28;20264;-54
2023/09/28 05:28:41;;;;;;;9.45;5.20;;;;;;;;;;5005920;28;20177;-54
2023/09/28 05:31:07;;;;;;;9.77;4.72;;;;;;;;;;5005617;28;20215;-54
2023/09/28 05:33:33;;;;;;;9.32;4.95;;;;;;;;;;5005008;28;20185;-54
2023/09/28 05:35:59;;;;;;;8.40;4.65;;;;;;;;;;5016784;28;20375;-54
2023/09/28 05:38:25;;;;;;;11.20;5.30;;;;;;;;;;5008110;28;20177;-54
2023/09/28 05:40:51;;;;;;;10.18;5.30;;;;;;;;;;4987812;28;20189;-54
2023/09/28 05:43:17;;;;;;;8.48;5.13;;;;;;;;;;5007888;28;20465;-54
2023/09/28 05:45:42;;;;;;;10.35;4.93;;;;;;;;;;5012745;28;20215;-54
2023/09/28 05:48:08;;;;;;;12.25;4.88;;;;;;;;;;4988788;28;20178;-54
2023/09/28 05:50:34;;;;;;;8.95;4.80;;;;;;;;;;4998855;28;20180;-54
2023/09/28 05:53:00;;;;;;;7.53;4.95;;;;;;;;;;5002776;28;20182;-55
2023/09/28 05:55:26;;;;;;;8.63;5.15;;;;;;;;;;4999689;28;20243;-54
2023/09/28 05:57:53;;;;;;;7.43;4.60;;;;;;;;;;4992528;28;20210;-54
2023/09/28 06:00:19;;;;;;;14.43;5.63;;;;;;;;;;4999650;28;20191;-53
2023/09/28 06:02:45;;;;;;;10.18;5.95;;;;;;;;;;5003887;28;20604;-54
2023/09/28 06:05:11;;;;;;;8.13;5.05;;;;;;;;;;5006157;28;20185;-54
2023/09/28 06:07:37;;;;;;;10.55;5.10;;;;;;;;;;4995944;28;20525;-53
2023/09/28 06:10:03;;;;;;;7.35;5.18;;;;;;;;;;5005514;28;20193;-53
2023/09/28 06:12:29;;;;;;;8.48;5.22;;;;;;;;;;5001621;28;20185;-53
2023/09/28 06:14:55;;;;;;;11.23;6.03;;;;;;;;;;4998846;28;20217;-54
2023/09/28 06:17:23;;;;;;;10.27;5.43;;;;;;;;;;5003842;28;20266;-53
2023/09/28 06:19:49;;;;;;;10.82;5.25;;;;;;;;;;4986820;28;20289;-54
2023/09/28 06:22:15;;;;;;;8.13;5.60;;;;;;;;;;5001976;28;20263;-53
2023/09/28 06:24:41;;;;;;;10.18;5.82;;;;;;;;;;4998038;28;20192;-53
2023/09/28 06:27:06;;;;;;;12.77;6.07;;;;;;;;;;5007212;28;20671;-54
2023/09/28 06:29:33;;;;;;;6.72;5.22;;;;;;;;;;4986832;28;20600;-53
2023/09/28 06:32:00;;;;;;;11.75;5.18;;;;;;;;;;5005820;28;20181;-54
2023/09/28 06:34:26;;;;;;;11.13;5.70;;;;;;;;;;5000378;28;20177;-54
2023/09/28 06:36:53;;;;;;;9.10;5.53;;;;;;;;;;5012424;28;20615;-53
2023/09/28 06:39:19;;;;;;;11.05;5.45;;;;;;;;;;4990076;28;20223;-53
2023/09/28 06:41:45;;;;;;;9.13;5.50;;;;;;;;;;5002609;28;20255;-54
2023/09/28 06:44:11;;;;;;;10.60;5.35;;;;;;;;;;4997033;28;20276;-53
2023/09/28 06:46:37;;;;;;;7.88;5.30;;;;;;;;;;5006807;28;20196;-53
2023/09/28 06:49:06;;;;;;;8.75;4.97;;;;;;;;;;4995986;28;20194;-53
2023/09/28 06:51:32;;;;;;;7.05;5.07;;;;;;;;;;4999123;28;20177;-53
2023/09/28 06:53:59;;;;;;;7.15;5.75;;;;;;;;;;4996546;28;20186;-53
2023/09/28 06:56:26;;;;;;;8.52;5.82;;;;;;;;;;4993497;28;20300;-53
2023/09/28 06:58:52;;;;;;;9.25;6.55;;;;;;;;;;4992613;28;20182;-54
2023/09/28 07:01:18;;;;;;;9.05;6.07;;;;;;;;;;4989984;28;20214;-53
2023/09/28 07:03:45;;;;;;;10.52;6.63;;;;;;;;;;5000738;28;20181;-53
2023/09/28 07:06:12;;;;;;;7.85;6.35;;;;;;;;;;4999278;28;20564;-53
2023/09/28 07:08:38;;;;;;;12.45;6.45;;;;;;;;;;4997072;28;20231;-53
2023/09/28 07:11:04;;;;;;;8.13;5.72;;;;;;;;;;5004532;28;20256;-53
2023/09/28 07:13:30;;;;;;;7.97;4.95;;;;;;;;;;5002242;28;20178;-53
2023/09/28 07:15:58;;;;;;;8.38;5.70;;;;;;;;;;5003179;28;20185;-53
2023/09/28 07:18:25;;;;;;;8.07;5.72;;;;;;;;;;4999483;28;20188;-53
2023/09/28 07:20:51;;;;;;;6.72;5.53;;;;;;;;;;4997478;28;20231;-53
2023/09/28 07:23:17;;;;;;;7.82;5.65;;;;;;;;;;5002314;28;20264;-53
2023/09/28 07:25:44;;;;;;;7.53;6.20;;;;;;;;;;5004296;28;20514;-53
2023/09/28 07:28:11;;;;;;;7.45;5.85;;;;;;;;;;4997190;28;20186;-53
2023/09/28 07:30:36;;;;;;;7.65;5.88;;;;;;;;;;5003250;28;20260;-53
2023/09/28 07:33:04;;;;;;;11.50;6.00;;;;;;;;;;5004327;28;20531;-53
2023/09/28 07:35:30;;;;;;;8.02;6.05;;;;;;;;;;5005755;28;20185;-53
2023/09/28 07:37:56;;;;;;;6.32;5.40;;;;;;;;;;4995423;28;20221;-53
2023/09/28 07:40:24;;;;;;;11.07;6.03;;;;;;;;;;5000621;28;20176;-53
2023/09/28 07:42:50;;;;;;;8.27;6.10;;;;;;;;;;5005058;28;20263;-53
2023/09/28 07:45:18;;;;;;;7.95;6.70;;;;;;;;;;5001737;28;20500;-53
2023/09/28 07:47:44;;;;;;;8.43;6.00;;;;;;;;;;4998760;28;20181;-53
2023/09/28 07:50:14;;;;;;;8.40;6.70;;;;;;;;;;5001686;28;20181;-53
2023/09/28 07:52:42;;;;;;;8.48;6.65;;;;;;;;;;4989287;28;20549;-53
2023/09/28 07:55:08;;;;;;;10.60;5.82;;;;;;;;;;5002088;28;20262;-53
2023/09/28 07:57:34;;;;;;;7.65;5.95;;;;;;;;;;4998881;28;20296;-53
2023/09/28 08:00:00;;;;;;;8.10;6.03;;;;;;;;;;4999200;28;20184;-53
2023/09/28 08:02:27;;;;;;;8.05;5.50;;;;;;;;;;4996431;28;20447;-53
2023/09/28 08:04:53;;;;;;;7.82;5.97;;;;;;;;;;4993225;28;20197;-54
2023/09/28 08:07:19;;;;;;;8.93;6.47;;;;;;;;;;4998730;28;20724;-54
2023/09/28 08:09:47;;;;;;;7.07;5.85;;;;;;;;;;5003493;28;20189;-53
2023/09/28 08:12:13;;;;;;;12.40;6.57;;;;;;;;;;4995939;28;20181;-54
2023/09/28 08:14:39;;;;;;;8.32;5.80;;;;;;;;;;5005753;28;20208;-53
2023/09/28 08:17:05;;;;;;;11.18;6.07;;;;;;;;;;4996738;28;20503;-54
2023/09/28 08:19:31;;;;;;;9.73;6.15;;;;;;;;;;4999559;28;20177;-54
2023/09/28 08:21:57;;;;;;;7.45;5.85;;;;;;;;;;5000065;28;20185;-53
2023/09/28 08:24:23;;;;;;;7.97;5.60;;;;;;;;;;4987689;28;20235;-54
2023/09/28 08:26:49;;;;;;;6.80;5.32;;;;;;;;;;4997672;28;20191;-54
2023/09/28 08:29:15;;;;;;;7.25;5.97;;;;;;;;;;4997304;28;20239;-53
2023/09/28 08:31:41;;;;;;;6.63;5.43;;;;;;;;;;4999540;28;20173;-53
2023/09/28 08:34:08;;;;;;;7.72;5.80;;;;;;;;;;5003404;28;20199;-54
2023/09/28 08:36:34;;;;;;;8.07;5.80;;;;;;;;;;4992359;28;20197;-54
2023/09/28 08:39:00;;;;;;;6.70;5.28;;;;;;;;;;5000301;28;20195;-54
2023/09/28 08:41:26;;;;;;;6.22;5.15;;;;;;;;;;4998743;28;20272;-54
2023/09/28 08:43:56;;;;;;;7.95;5.35;;;;;;;;;;4992141;28;20177;-54
2023/09/28 08:46:22;;;;;;;6.10;5.18;;;;;;;;;;4994870;28;20465;-54
2023/09/28 08:48:48;;;;;;;7.13;5.60;;;;;;;;;;5008830;28;20194;-54
2023/09/28 08:51:15;;;;;;;7.07;5.40;;;;;;;;;;5006386;28;20185;-54
2023/09/28 08:53:43;;;;;;;5.90;5.05;;;;;;;;;;4997379;28;20177;-54
2023/09/28 08:56:09;;;;;;;7.00;5.50;;;;;;;;;;5001707;28;20195;-54
2023/09/28 08:58:35;;;;;;;8.57;4.97;;;;;;;;;;4996292;28;20178;-54
2023/09/28 09:01:02;;;;;;;4.95;4.47;;;;;;;;;;4999884;28;20224;-54
2023/09/28 09:03:28;;;;;;;5.18;4.68;;;;;;;;;;5003138;28;20191;-54
2023/09/28 09:05:54;;;;;;;7.20;5.32;;;;;;;;;;5001640;28;20581;-54
2023/09/28 09:08:22;;;;;;;5.22;4.70;;;;;;;;;;5010689;28;20185;-54
2023/09/28 09:10:49;;;;;;;8.18;5.35;;;;;;;;;;5007126;28;20177;-54
2023/09/28 09:13:19;;;;;;;6.13;5.05;;;;;;;;;;4995140;28;20219;-54
2023/09/28 09:15:45;;;;;;;8.93;4.82;;;;;;;;;;5010023;28;20230;-54
2023/09/28 09:18:18;;;;;;;8.02;4.53;;;;;;;;;;5005344;28;20201;-54
2023/09/28 09:20:46;;;;;;;7.30;5.00;;;;;;;;;;5009081;28;20740;-54
2023/09/28 09:23:12;;;;;;;6.20;4.38;;;;;;;;;;5000849;28;20513;-54
2023/09/28 09:25:42;;;;;;;6.28;4.72;;;;;;;;;;5010709;28;20267;-54
2023/09/28 09:28:08;;;;;;;7.80;5.38;;;;;;;;;;5000866;28;20561;-54
2023/09/28 09:30:37;;;;;;;7.57;5.32;;;;;;;;;;5004774;28;20200;-54
2023/09/28 09:33:04;;;;;;;7.13;4.93;;;;;;;;;;5009796;28;20192;-54
2023/09/28 09:35:31;;;;;;;5.72;4.97;;;;;;;;;;5000751;28;20173;-54
2023/09/28 09:37:57;;;;;;;6.25;5.10;;;;;;;;;;5005423;28;20209;-54
2023/09/28 09:40:23;;;;;;;6.35;4.38;;;;;;;;;;5002517;28;20504;-54
2023/09/28 09:42:49;;;;;;;6.07;5.03;;;;;;;;;;4996375;28;20543;-54
2023/09/28 09:45:15;;;;;;;6.32;4.82;;;;;;;;;;4996266;28;20260;-53
2023/09/28 09:47:46;;;;;;;6.75;4.78;;;;;;;;;;4995766;28;20591;-53
2023/09/28 09:50:14;;;;;;;4.80;4.25;;;;;;;;;;5001943;28;20196;-54
2023/09/28 09:52:41;;;;;;;5.38;4.15;;;;;;;;;;5004200;28;20454;-54
2023/09/28 09:55:08;;;;;;;4.65;4.05;;;;;;;;;;4997334;28;20186;-54
2023/09/28 09:57:37;;;;;;;6.35;4.47;;;;;;;;;;4995866;28;20211;-54
2023/09/28 10:00:07;;;;;;;7.15;4.25;;;;;;;;;;5002255;28;20184;-54
2023/09/28 10:02:35;;;;;;;5.18;4.00;;;;;;;;;;5006658;28;20271;-53
2023/09/28 10:05:01;;;;;;;5.90;4.00;;;;;;;;;;4992111;28;20195;-53
2023/09/28 10:07:32;;;;;;;4.65;4.15;;;;;;;;;;5005546;28;20197;-54
2023/09/28 10:09:58;;;;;;;8.23;4.20;;;;;;;;;;5006481;28;20199;-53
2023/09/28 10:12:24;;;;;;;4.03;3.47;;;;;;;;;;4995524;28;20503;-53
2023/09/28 10:14:51;;;;;;;3.58;3.28;;;;;;;;;;5004373;28;20181;-53
2023/09/28 10:17:17;;;;;;;4.78;4.05;;;;;;;;;;4999738;28;20577;-53
2023/09/28 10:19:43;;;;;;;4.20;3.80;;;;;;;;;;4996935;28;20260;-54
2023/09/28 10:22:12;;;;;;;4.57;3.22;;;;;;;;;;4988093;28;20185;-54
2023/09/28 10:24:38;;;;;;;6.00;3.67;;;;;;;;;;4993018;28;20189;-53
2023/09/28 10:27:09;;;;;;;3.60;3.30;;;;;;;;;;4989436;28;20200;-53
2023/09/28 10:29:35;;;;;;;5.65;3.25;;;;;;;;;;4998736;28;20208;-53
2023/09/28 10:32:03;;;;;;;4.95;3.33;;;;;;;;;;5000326;28;20184;-54
2023/09/28 10:34:30;;;;;;;3.50;3.17;;;;;;;;;;4994827;28;20185;-53
2023/09/28 10:37:11;;;;;;;7.03;3.08;;;;;;;;;;5004845;28;20208;-53
2023/09/28 10:39:37;;;;;;;4.57;2.90;;;;;;;;;;4993354;28;20260;-53
2023/09/28 10:42:10;;;;;;;3.63;2.97;;;;;;;;;;5002383;28;20207;-53
2023/09/28 10:44:46;;;;;;;3.33;3.03;;;;;;;;;;4996680;28;20181;-53
2023/09/28 10:47:11;;;;;;;3.97;3.15;;;;;;;;;;5003984;28;20211;-53
2023/09/28 10:49:38;;;;;;;5.50;2.95;;;;;;;;;;4996305;28;20193;-53
2023/09/28 10:52:03;;;;;;;4.25;2.70;;;;;;;;;;5004515;28;20189;-53
2023/09/28 10:54:30;;;;;;;5.72;3.08;;;;;;;;;;4983887;28;20198;-53
2023/09/28 10:56:56;;;;;;;7.95;4.22;;;;;;;;;;5007990;28;20287;-53
2023/09/28 10:59:24;;;;;;;7.30;4.15;;;;;;;;;;4987952;28;20186;-53
2023/09/28 11:01:49;;;;;;;7.25;3.85;;;;;;;;;;5005786;28;20552;-53
2023/09/28 11:04:16;;;;;;;6.00;2.97;;;;;;;;;;4996511;28;20208;-53
2023/09/28 11:06:43;;;;;;;4.13;3.17;;;;;;;;;;5004278;28;20631;-53
2023/09/28 11:09:14;;;;;;;12.93;5.63;;;;;;;;;;5001795;28;20220;-53
2023/09/28 11:11:41;;;;;;;7.72;3.47;;;;;;;;;;4996900;28;20185;-53
2023/09/28 11:14:07;;;;;;;4.93;2.90;;;;;;;;;;4998341;28;20271;-53
2023/09/28 11:16:34;;;;;;;9.02;4.13;;;;;;;;;;4998942;28;20248;-52
2023/09/28 11:19:00;;;;;;;5.88;3.53;;;;;;;;;;5002682;28;20181;-50
2023/09/28 11:21:31;;;;;;;11.98;3.50;;;;;;;;;;5006446;28;20188;-50
2023/09/28 11:23:58;;;;;;;11.80;4.63;;;;;;;;;;4993138;28;20197;-50
2023/09/28 11:26:24;;;;;;;12.35;3.78;;;;;;;;;;4996732;28;20204;-49
2023/09/28 11:28:51;;;;;;;5.00;3.10;;;;;;;;;;5003321;28;20212;-49
2023/09/28 11:31:16;;;;;;;6.78;3.95;;;;;;;;;;4999532;28;20189;-49
2023/09/28 11:33:44;;;;;;;9.80;4.10;;;;;;;;;;5006362;28;20176;-49
2023/09/28 11:36:21;;;;;;;12.85;3.90;;;;;;;;;;4991416;28;20480;-49
2023/09/28 11:38:48;;;;;;;8.85;3.80;;;;;;;;;;4998039;28;20259;-49
2023/09/28 11:41:15;;;;;;;7.20;3.25;;;;;;;;;;4995028;28;20670;-49
2023/09/28 11:43:49;;;;;;;8.27;3.72;;;;;;;;;;4994122;28;20177;-49
2023/09/28 11:46:22;;;;;;;7.80;3.45;;;;;;;;;;4999768;28;20260;-49
2023/09/28 11:48:49;;;;;;;6.88;3.20;;;;;;;;;;4996775;28;20557;-49
2023/09/28 11:51:15;;;;;;;4.85;3.08;;;;;;;;;;4991883;28;20180;-50
2023/09/28 11:53:42;;;;;;;5.90;2.97;;;;;;;;;;4999193;28;20185;-49
2023/09/28 11:56:11;;;;;;;5.00;3.15;;;;;;;;;;4992378;28;20246;-49
2023/09/28 11:58:37;;;;;;;6.70;2.88;;;;;;;;;;5002604;28;20181;-49
2023/09/28 12:01:03;;;;;;;4.50;2.60;;;;;;;;;;4994883;28;20584;-50
2023/09/28 12:03:29;;;;;;;3.30;2.80;;;;;;;;;;5002720;28;20189;-50
2023/09/28 12:05:55;;;;;;;3.53;2.78;;;;;;;;;;5004218;28;20188;-50
2023/09/28 12:08:21;;;;;;;3.95;2.45;;;;;;;;;;4991797;28;20185;-50
2023/09/28 12:10:48;;;;;;;4.07;2.85;;;;;;;;;;5001475;28;20204;-50
2023/09/28 12:13:13;;;;;;;4.03;2.40;;;;;;;;;;4995096;28;20208;-50
2023/09/28 12:15:39;;;;;;;5.35;2.53;;;;;;;;;;4995010;28;20603;-50
2023/09/28 12:18:05;;;;;;;3.05;2.42;;;;;;;;;;5013726;28;20236;-50
2023/09/28 12:20:31;;;;;;;6.55;2.53;;;;;;;;;;4995887;28;20170;-50
2023/09/28 12:22:58;;;;;;;2.63;2.42;;;;;;;;;;5002448;28;20200;-49
2023/09/28 12:25:24;;;;;;;2.30;2.10;;;;;;;;;;4994543;28;20193;-49
2023/09/28 12:27:50;;;;;;;5.68;2.35;;;;;;;;;;5002232;28;20197;-50
2023/09/28 12:30:21;;;;;;;5.30;2.80;;;;;;;;;;4994909;28;20268;-50
2023/09/28 12:32:49;;;;;;;3.08;2.13;;;;;;;;;;5001041;28;20228;-49
2023/09/28 12:35:15;;;;;;;5.00;1.95;;;;;;;;;;5001274;28;20180;-49
2023/09/28 12:37:41;;;;;;;2.88;2.47;;;;;;;;;;4997350;28;20306;-49
2023/09/28 12:40:12;;;;;;;2.65;2.20;;;;;;;;;;4991138;28;20181;-49
2023/09/28 12:42:39;;;;;;;2.50;2.22;;;;;;;;;;5003509;28;20184;-50
2023/09/28 12:45:05;;;;;;;4.28;2.00;;;;;;;;;;4997480;28;20235;-50
2023/09/28 12:47:31;;;;;;;3.15;2.00;;;;;;;;;;5005903;28;20205;-50
2023/09/28 12:49:59;;;;;;;4.45;2.15;;;;;;;;;;5005046;28;20212;-49
2023/09/28 12:52:25;;;;;;;3.05;2.08;;;;;;;;;;5007870;28;20268;-49
2023/09/28 12:54:51;;;;;;;2.40;2.08;;;;;;;;;;5004483;28;20268;-49
2023/09/28 12:57:18;;;;;;;2.65;1.80;;;;;;;;;;4990553;28;20300;-49
2023/09/28 12:59:46;;;;;;;3.22;2.00;;;;;;;;;;5003845;28;20192;-49
2023/09/28 13:02:12;;;;;;;2.30;2.00;;;;;;;;;;5011785;28;20177;-51
2023/09/28 13:04:38;;;;;;;2.22;2.03;;;;;;;;;;5000046;28;20238;-50
2023/09/28 13:07:04;;;;;;;3.40;2.15;;;;;;;;;;5004595;28;20185;-49
2023/09/28 13:09:32;;;;;;;3.00;2.20;;;;;;;;;;4989700;28;20277;-50
2023/09/28 13:11:58;;;;;;;2.33;1.90;;;;;;;;;;4999579;28;20177;-50
2023/09/28 13:14:27;;;;;;;3.10;2.00;;;;;;;;;;4986356;28;20209;-50
2023/09/28 13:16:55;;;;;;;2.10;1.90;;;;;;;;;;5006034;28;20807;-50
2023/09/28 13:19:25;;;;;;;2.03;1.83;;;;;;;;;;4998909;28;20222;-50
2023/09/28 13:21:51;;;;;;;3.63;2.10;;;;;;;;;;4990914;28;20185;-49
2023/09/28 13:24:17;;;;;;;1.92;1.70;;;;;;;;;;4989873;28;20304;-49
2023/09/28 13:26:43;;;;;;;2.75;1.92;;;;;;;;;;5002671;28;20267;-49
2023/09/28 13:29:08;;;;;;;5.05;1.98;;;;;;;;;;5002819;28;20181;-49
2023/09/28 13:31:36;;;;;;;3.25;2.00;;;;;;;;;;4999856;28;20192;-50
2023/09/28 13:34:03;;;;;;;2.40;2.03;;;;;;;;;;5004676;28;20181;-50
2023/09/28 13:36:29;;;;;;;4.40;1.90;;;;;;;;;;5006308;28;20201;-50
2023/09/28 13:38:55;;;;;;;3.08;1.70;;;;;;;;;;4990742;28;20307;-50
2023/09/28 13:41:27;;;;;;;1.98;1.60;;;;;;;;;;4994998;28;20264;-49
2023/09/28 13:43:53;;;;;;;2.28;1.80;;;;;;;;;;4994148;28;20188;-50
2023/09/28 13:46:20;;;;;;;2.55;1.73;;;;;;;;;;5001800;28;20173;-50
2023/09/28 13:48:46;;;;;;;2.22;1.90;;;;;;;;;;4998704;28;20173;-49
2023/09/28 13:51:12;;;;;;;4.28;2.05;;;;;;;;;;5005530;28;20205;-49
2023/09/28 13:53:38;;;;;;;2.28;2.08;;;;;;;;;;4989268;28;20564;-49
2023/09/28 13:56:04;;;;;;;1.88;1.65;;;;;;;;;;5007485;28;20180;-50
2023/09/28 13:58:31;;;;;;;2.25;1.90;;;;;;;;;;4997086;28;20254;-49
2023/09/28 14:00:57;;;;;;;2.53;1.92;;;;;;;;;;5009013;28;20184;-49
2023/09/28 14:03:23;;;;;;;2.22;2.03;;;;;;;;;;4994870;28;20268;-49
2023/09/28 14:05:50;;;;;;;2.22;1.52;;;;;;;;;;4999225;28;20199;-50
2023/09/28 14:08:17;;;;;;;3.03;1.70;;;;;;;;;;4997178;28;20184;-49
2023/09/28 14:10:43;;;;;;;4.13;1.70;;;;;;;;;;4986479;28;20206;-49
2023/09/28 14:13:09;;;;;;;2.13;1.80;;;;;;;;;;4989448;28;20260;-49
2023/09/28 14:15:36;;;;;;;1.83;1.70;;;;;;;;;;4992660;28;20193;-49
2023/09/28 14:18:02;;;;;;;2.35;2.00;;;;;;;;;;4993846;28;20308;-50
2023/09/28 14:20:28;;;;;;;7.28;1.85;;;;;;;;;;4990590;28;20245;-50
2023/09/28 14:22:54;;;;;;;4.20;1.75;;;;;;;;;;4990947;28;20199;-50
2023/09/28 14:25:21;;;;;;;2.72;1.80;;;;;;;;;;4998576;28;20565;-50
2023/09/28 14:27:47;;;;;;;5.13;1.70;;;;;;;;;;4997811;28;20201;-49
2023/09/28 14:30:14;;;;;;;5.18;2.05;;;;;;;;;;5006637;28;20181;-49
2023/09/28 14:32:40;;;;;;;3.47;1.70;;;;;;;;;;5006781;28;20442;-49
2023/09/28 14:35:06;;;;;;;5.30;2.03;;;;;;;;;;4991059;28;20191;-49
2023/09/28 14:37:32;;;;;;;2.38;1.48;;;;;;;;;;4989096;28;20292;-49